Time;durP1;ratioP1;P1;durP2;ratioP2;P2;SDS_P1;SDS_P2;PMS_P1;PMS_P2;Temp;Humidity;BMP_temperature;BMP_pressure;BME280_temperature;BME280_humidity;BME280_pressure;Samples;Min_cycle;Max_cycle;Signal;HPM_P1;HPM_P2
2023/02/23 00:00:56;;;;;;;;;;;;;;;9.75;71.22;97597.06;4924269;29;21709;-57
2023/02/23 00:03:25;;;;;;;;;;;;;;;9.73;70.63;97591.97;4933682;29;19923;-56
2023/02/23 00:05:52;;;;;;;;;;;;;;;9.81;70.40;97602.06;4933756;29;19938;-56
2023/02/23 00:08:22;;;;;;;;;;;;;;;9.75;70.54;97597.06;4935341;29;20372;-56
2023/02/23 00:10:57;;;;;;;;;;;;;;;9.69;70.55;97601.84;4935290;29;20760;-56
2023/02/23 00:13:25;;;;;;;;;;;;;;;9.71;70.36;97596.91;4930799;29;19927;-56
2023/02/23 00:15:54;;;;;;;;;;;;;;;9.70;70.08;97598.03;4927964;29;19949;-56
2023/02/23 00:18:22;;;;;;;;;;;;;;;9.63;70.37;97600.38;4933895;29;20014;-56
2023/02/23 00:20:56;;;;;;;;;;;;;;;9.64;70.28;97599.25;4934696;29;19927;-56
2023/02/23 00:23:51;;;;;;;;;;;;;;;9.56;70.67;97592.69;4939069;29;19929;-56
2023/02/23 00:26:20;;;;;;;;;;;;;;;9.51;70.80;97587.41;4935128;29;19930;-57
2023/02/23 00:28:49;;;;;;;;;;;;;;;9.60;70.45;97590.19;4935554;29;19934;-56
2023/02/23 00:31:17;;;;;;;;;;;;;;;9.56;70.49;97590.00;4923076;29;19923;-56
2023/02/23 00:33:46;;;;;;;;;;;;;;;9.52;70.85;97588.22;4931135;29;19969;-56
2023/02/23 00:36:14;;;;;;;;;;;;;;;9.54;70.68;97586.81;4935489;28;19930;-56
2023/02/23 00:38:44;;;;;;;;;;;;;;;9.59;70.66;97583.97;4931978;29;20369;-56
2023/02/23 00:44:09;;;;;;;;;;;;;;;9.63;70.87;97584.09;4925639;29;19926;-56
2023/02/23 00:46:38;;;;;;;;;;;;;;;9.67;70.57;97588.59;4926096;29;20020;-57
2023/02/23 00:49:06;;;;;;;;;;;;;;;9.67;70.83;97588.59;4930599;29;20379;-56
2023/02/23 00:51:34;;;;;;;;;;;;;;;9.52;71.22;97588.22;4933677;29;19957;-56
2023/02/23 00:54:01;;;;;;;;;;;;;;;9.31;72.07;97587.94;4948850;28;19930;-56
2023/02/23 00:56:31;;;;;;;;;;;;;;;9.23;72.28;97592.22;4947610;29;19923;-56
2023/02/23 00:58:59;;;;;;;;;;;;;;;9.30;71.82;97592.56;4949567;28;20375;-56
2023/02/23 01:01:27;;;;;;;;;;;;;;;9.27;72.04;97593.19;4927314;29;19974;-55
2023/02/23 01:03:55;;;;;;;;;;;;;;;9.22;72.36;97595.25;4932964;29;19935;-56
2023/02/23 01:06:23;;;;;;;;;;;;;;;9.17;72.50;97601.59;4950291;29;19927;-56
2023/02/23 01:08:55;;;;;;;;;;;;;;;9.15;72.46;97592.94;4930946;29;19923;-56
2023/02/23 01:11:26;;;;;;;;;;;;;;;9.16;72.63;97598.09;4937219;29;19923;-60
2023/02/23 01:13:56;;;;;;;;;;;;;;;9.19;72.39;97597.44;4935796;29;20372;-60
2023/02/23 01:16:30;;;;;;;;;;;;;;;9.14;72.52;97602.19;4931806;29;19930;-56
2023/02/23 01:18:59;;;;;;;;;;;;;;;9.09;72.80;97597.69;4935960;29;19931;-56
2023/02/23 01:21:30;;;;;;;;;;;;;;;9.04;72.92;97599.72;4930901;29;20009;-57
2023/02/23 01:23:59;;;;;;;;;;;;;;;9.02;73.10;97596.53;4926575;29;19923;-56
2023/02/23 01:26:30;;;;;;;;;;;;;;;9.04;72.78;97594.31;4946678;28;20438;-56
2023/02/23 01:29:00;;;;;;;;;;;;;;;8.97;73.07;97594.75;4951985;29;20428;-57
2023/02/23 01:31:29;;;;;;;;;;;;;;;8.98;73.17;97592.84;4929110;29;19922;-56
2023/02/23 01:33:58;;;;;;;;;;;;;;;8.98;73.12;97590.13;4937760;29;20369;-56
2023/02/23 01:36:30;;;;;;;;;;;;;;;8.97;73.25;97593.97;4932851;29;19954;-57
2023/02/23 01:39:00;;;;;;;;;;;;;;;9.06;72.97;97597.53;4933057;29;20233;-59
2023/02/23 01:41:31;;;;;;;;;;;;;;;9.03;72.84;97588.09;4937027;29;20374;-56
2023/02/23 01:44:04;;;;;;;;;;;;;;;9.06;72.67;97586.69;4951567;28;19923;-56
2023/02/23 01:46:35;;;;;;;;;;;;;;;9.04;72.53;97586.19;4927951;28;19922;-56
2023/02/23 01:49:03;;;;;;;;;;;;;;;9.04;72.70;97588.91;4932295;29;19973;-56
2023/02/23 01:51:32;;;;;;;;;;;;;;;9.12;72.41;97585.47;4933456;29;19922;-56
2023/02/23 01:54:02;;;;;;;;;;;;;;;9.09;72.26;97581.44;4945369;29;19935;-56
2023/02/23 01:56:32;;;;;;;;;;;;;;;9.16;72.04;97587.25;4944310;29;19930;-57
2023/02/23 01:59:03;;;;;;;;;;;;;;;9.15;72.18;97571.28;4943021;28;20024;-58
2023/02/23 02:01:33;;;;;;;;;;;;;;;9.06;72.21;97581.28;4933427;28;19930;-56
2023/02/23 02:04:05;;;;;;;;;;;;;;;8.96;72.38;97582.31;4933515;29;19993;-56
2023/02/23 02:06:34;;;;;;;;;;;;;;;8.91;72.10;97582.44;4927075;29;19974;-56
2023/02/23 02:09:05;;;;;;;;;;;;;;;8.89;72.20;97582.75;4933406;29;19986;-56
2023/02/23 02:11:36;;;;;;;;;;;;;;;8.86;72.08;97591.50;4931238;28;19930;-56
2023/02/23 02:17:02;;;;;;;;;;;;;;;8.81;72.53;97580.78;4936097;28;19942;-55
2023/02/23 02:19:54;;;;;;;;;;;;;;;8.84;72.64;97582.88;4931479;29;19922;-57
2023/02/23 02:22:27;;;;;;;;;;;;;;;8.77;72.99;97584.41;4893327;29;19923;-55
2023/02/23 02:25:10;;;;;;;;;;;;;;;8.79;72.91;97585.72;4942474;29;19982;-55
2023/02/23 02:27:46;;;;;;;;;;;;;;;8.86;72.41;97582.56;4931465;29;19926;-55
2023/02/23 02:30:22;;;;;;;;;;;;;;;8.77;72.64;97582.50;4921346;28;19934;-55
2023/02/23 02:33:30;;;;;;;;;;;;;;;8.78;72.40;97581.38;4927990;29;19930;-55
2023/02/23 02:36:26;;;;;;;;;;;;;;;8.77;72.58;97573.56;4926656;29;19930;-55
2023/02/23 02:38:57;;;;;;;;;;;;;;;8.71;72.60;97578.31;4925794;28;19930;-56
2023/02/23 02:41:30;;;;;;;;;;;;;;;8.66;72.86;97578.44;4948884;29;19985;-55
2023/02/23 02:43:58;;;;;;;;;;;;;;;8.73;73.02;97578.00;4930548;29;19961;-55
2023/02/23 02:46:27;;;;;;;;;;;;;;;8.75;72.72;97573.88;4929567;29;19922;-56
2023/02/23 02:48:58;;;;;;;;;;;;;;;8.70;72.55;97565.09;4932154;29;19933;-56
2023/02/23 02:51:27;;;;;;;;;;;;;;;8.64;73.04;97572.53;4948051;29;20280;-56
2023/02/23 02:53:59;;;;;;;;;;;;;;;8.60;73.15;97569.63;4955788;28;19934;-55
2023/02/23 02:56:27;;;;;;;;;;;;;;;8.55;73.58;97574.34;4954497;28;19923;-56
2023/02/23 02:58:55;;;;;;;;;;;;;;;8.46;73.49;97570.78;4958305;28;19925;-56
2023/02/23 04:17:42;;;;;;;;;;;;;;;7.98;74.68;97595.59;4931559;29;19926;-56
2023/02/23 04:20:12;;;;;;;;;;;;;;;7.84;75.05;97593.69;4932756;29;20017;-55
2023/02/23 04:22:40;;;;;;;;;;;;;;;7.75;75.54;97597.41;4929751;29;19930;-56
2023/02/23 04:25:08;;;;;;;;;;;;;;;7.66;75.80;97599.19;4930877;29;20288;-56
2023/02/23 04:27:39;;;;;;;;;;;;;;;7.50;76.59;97590.56;4933132;29;19946;-56
2023/02/23 04:30:10;;;;;;;;;;;;;;;7.40;77.14;97590.75;4929044;29;19923;-56
2023/02/23 04:32:38;;;;;;;;;;;;;;;7.60;76.07;97596.59;4934173;29;19931;-56
2023/02/23 04:35:07;;;;;;;;;;;;;;;7.67;75.87;97596.22;4936599;29;20304;-55
2023/02/23 04:37:38;;;;;;;;;;;;;;;7.73;75.81;97594.22;4933796;29;19922;-55
2023/02/23 04:40:07;;;;;;;;;;;;;;;7.72;75.85;97601.50;4935869;29;19982;-55
2023/02/23 04:42:35;;;;;;;;;;;;;;;7.73;75.65;97605.81;4933523;29;19922;-55
2023/02/23 04:45:07;;;;;;;;;;;;;;;7.65;75.89;97601.09;4929145;29;19977;-57
2023/02/23 04:47:37;;;;;;;;;;;;;;;7.64;75.91;97606.81;4935336;28;20277;-56
2023/02/23 04:50:06;;;;;;;;;;;;;;;7.60;76.08;97606.59;4932338;29;19930;-56
2023/02/23 04:52:38;;;;;;;;;;;;;;;7.57;76.17;97607.22;4935588;29;19939;-56
2023/02/23 04:55:07;;;;;;;;;;;;;;;7.50;76.20;97607.59;4935921;29;19922;-56
2023/02/23 04:57:35;;;;;;;;;;;;;;;7.48;76.11;97611.69;4928539;29;19962;-56
2023/02/23 05:00:29;;;;;;;;;;;;;;;7.47;76.26;97610.09;4928204;28;19934;-56
2023/02/23 05:02:57;;;;;;;;;;;;;;;7.49;76.20;97607.88;4934908;29;20253;-56
2023/02/23 05:05:25;;;;;;;;;;;;;;;7.32;76.68;97613.88;4932870;29;20254;-56
2023/02/23 05:07:54;;;;;;;;;;;;;;;7.18;77.03;97605.72;4932250;29;19922;-56
2023/02/23 05:10:47;;;;;;;;;;;;;;;6.98;77.71;97608.78;4935916;29;19923;-56
2023/02/23 05:13:15;;;;;;;;;;;;;;;6.86;78.02;97608.41;4932107;29;19930;-61
2023/02/23 05:15:43;;;;;;;;;;;;;;;6.76;78.59;97612.06;4925724;28;19923;-57
2023/02/23 05:18:12;;;;;;;;;;;;;;;6.70;79.21;97605.16;4930471;29;19929;-55
2023/02/23 05:20:43;;;;;;;;;;;;;;;6.74;79.15;97612.38;4946906;28;19923;-55
2023/02/23 05:23:13;;;;;;;;;;;;;;;6.84;78.57;97606.03;4933931;29;19970;-55
2023/02/23 05:26:05;;;;;;;;;;;;;;;6.74;79.19;97612.38;4933413;29;19934;-55
2023/02/23 05:28:34;;;;;;;;;;;;;;;6.95;78.69;97612.06;4933176;29;19923;-55
2023/02/23 05:31:05;;;;;;;;;;;;;;;7.05;77.89;97609.19;4926889;29;19949;-56
2023/02/23 05:33:34;;;;;;;;;;;;;;;7.17;77.61;97609.53;4933485;29;19926;-58
2023/02/23 05:36:04;;;;;;;;;;;;;;;7.23;76.80;97611.03;4932280;29;19922;-56
2023/02/23 05:38:33;;;;;;;;;;;;;;;7.06;77.57;97613.50;4932008;29;19938;-56
2023/02/23 05:41:04;;;;;;;;;;;;;;;6.89;78.32;97616.75;4929585;29;19934;-56
2023/02/23 05:43:32;;;;;;;;;;;;;;;6.90;78.54;97609.44;4932554;29;19923;-56
2023/02/23 05:46:01;;;;;;;;;;;;;;;6.77;79.04;97613.69;4922455;29;19935;-56
2023/02/23 05:48:29;;;;;;;;;;;;;;;6.87;78.70;97615.41;4933805;29;20209;-56
2023/02/23 05:51:00;;;;;;;;;;;;;;;6.79;79.15;97609.59;4929892;29;19935;-56
2023/02/23 05:53:28;;;;;;;;;;;;;;;6.97;78.38;97607.16;4929135;29;19923;-56
2023/02/23 05:55:57;;;;;;;;;;;;;;;6.99;78.32;97613.88;4932315;29;19927;-54
2023/02/23 05:58:26;;;;;;;;;;;;;;;6.70;79.07;97608.66;4931659;29;19957;-53
2023/02/23 06:00:53;;;;;;;;;;;;;;;7.02;78.33;97609.78;4924661;29;19923;-53
2023/02/23 06:03:21;;;;;;;;;;;;;;;7.17;77.83;97617.63;4932315;29;19986;-53
2023/02/23 06:05:49;;;;;;;;;;;;;;;7.28;76.93;97616.34;4928865;28;19977;-53
2023/02/23 06:08:17;;;;;;;;;;;;;;;7.41;76.49;97619.41;4933477;29;19981;-53
2023/02/23 06:10:45;;;;;;;;;;;;;;;7.35;76.43;97622.19;4934535;29;19922;-53
2023/02/23 06:13:15;;;;;;;;;;;;;;;7.41;75.99;97625.59;4935714;29;20388;-53
2023/02/23 06:15:45;;;;;;;;;;;;;;;7.40;76.16;97623.19;4927226;29;19942;-54
2023/02/23 06:18:14;;;;;;;;;;;;;;;7.38;76.37;97626.19;4929629;29;20245;-54
2023/02/23 06:20:42;;;;;;;;;;;;;;;7.37;76.62;97632.69;4930776;29;19934;-54
2023/02/23 06:23:11;;;;;;;;;;;;;;;7.47;75.86;97629.03;4940334;28;19971;-54
2023/02/23 06:26:05;;;;;;;;;;;;;;;7.53;76.09;97627.81;4933928;28;19922;-54
2023/02/23 06:28:35;;;;;;;;;;;;;;;7.55;75.97;97633.72;4933565;29;19923;-54
2023/02/23 06:31:03;;;;;;;;;;;;;;;7.52;75.66;97634.34;4924269;28;20356;-54
2023/02/23 06:33:31;;;;;;;;;;;;;;;7.60;75.80;97644.44;4930080;28;20005;-53
2023/02/23 06:35:59;;;;;;;;;;;;;;;7.64;75.59;97641.97;4946110;28;19927;-54
2023/02/23 06:38:28;;;;;;;;;;;;;;;7.65;75.61;97641.66;4933014;29;19962;-54
2023/02/23 06:40:56;;;;;;;;;;;;;;;7.43;76.26;97647.72;4931493;29;20408;-56
2023/02/23 06:43:24;;;;;;;;;;;;;;;7.64;75.07;97650.06;4930736;29;19931;-54
2023/02/23 06:45:54;;;;;;;;;;;;;;;7.72;74.85;97652.06;4927446;29;19922;-54
2023/02/23 06:48:22;;;;;;;;;;;;;;;7.66;74.90;97659.47;4933282;28;19929;-54
2023/02/23 06:50:51;;;;;;;;;;;;;;;7.67;74.72;97660.28;4932348;29;19935;-54
2023/02/23 06:53:19;;;;;;;;;;;;;;;7.49;75.73;97656.53;4933528;29;20349;-53
2023/02/23 06:55:47;;;;;;;;;;;;;;;7.75;75.08;97667.72;4947676;29;20248;-53
2023/02/23 06:58:15;;;;;;;;;;;;;;;7.66;75.03;97664.06;4934438;29;19934;-54
2023/02/23 07:00:43;;;;;;;;;;;;;;;7.48;75.86;97663.06;4921947;29;20333;-54
2023/02/23 07:03:13;;;;;;;;;;;;;;;7.35;76.14;97673.53;4934544;28;19927;-61
2023/02/23 07:05:40;;;;;;;;;;;;;;;7.30;76.41;97662.81;4933554;29;19971;-53
2023/02/23 07:08:09;;;;;;;;;;;;;;;7.06;77.35;97667.53;4933552;29;19933;-54
2023/02/23 07:10:37;;;;;;;;;;;;;;;6.96;78.25;97678.47;4929060;29;19927;-53
2023/02/23 07:13:05;;;;;;;;;;;;;;;7.13;77.64;97670.63;4929298;29;20221;-57
2023/02/23 07:15:58;;;;;;;;;;;;;;;7.12;77.59;97676.34;4918765;28;19934;-54
2023/02/23 07:18:53;;;;;;;;;;;;;;;7.21;77.72;97680.78;4930806;29;20005;-54
2023/02/23 07:21:21;;;;;;;;;;;;;;;7.29;77.35;97684.72;4944844;28;19934;-54
2023/02/23 07:23:49;;;;;;;;;;;;;;;7.27;77.78;97684.22;4931010;29;20940;-53
2023/02/23 07:26:17;;;;;;;;;;;;;;;7.33;77.88;97677.63;4927191;29;19923;-54
2023/02/23 07:28:45;;;;;;;;;;;;;;;7.44;77.60;97684.47;4929743;29;19929;-53
2023/02/23 07:34:06;;;;;;;;;;;;;;;7.58;77.29;97681.81;4932315;29;20253;-54
2023/02/23 07:36:34;;;;;;;;;;;;;;;7.50;77.31;97683.28;4931252;29;20304;-54
2023/02/23 07:39:03;;;;;;;;;;;;;;;7.53;77.46;97682.69;4926753;29;20025;-53
2023/02/23 07:41:31;;;;;;;;;;;;;;;7.59;77.07;97686.09;4930658;29;19930;-54
2023/02/23 07:44:00;;;;;;;;;;;;;;;7.69;76.84;97680.53;4929776;29;20388;-53
2023/02/23 07:46:28;;;;;;;;;;;;;;;7.48;77.45;97685.47;4921483;29;19946;-54
2023/02/23 07:48:56;;;;;;;;;;;;;;;7.64;77.22;97694.13;4925397;29;19958;-53
2023/02/23 07:51:25;;;;;;;;;;;;;;;7.52;78.18;97688.41;4927531;29;19930;-53
2023/02/23 07:53:53;;;;;;;;;;;;;;;7.90;76.36;97689.06;4930790;29;19927;-53
2023/02/23 07:56:22;;;;;;;;;;;;;;;7.62;77.11;97690.94;4924125;29;19945;-54
2023/02/23 07:58:50;;;;;;;;;;;;;;;7.55;77.24;97694.00;4929843;29;19935;-54
2023/02/23 08:01:18;;;;;;;;;;;;;;;7.86;76.24;97686.16;4922712;29;20002;-53
2023/02/23 08:03:48;;;;;;;;;;;;;;;8.07;75.89;97691.97;4931494;29;19929;-56
2023/02/23 08:06:19;;;;;;;;;;;;;;;8.19;75.38;97691.47;4933171;29;19930;-53
2023/02/23 08:08:49;;;;;;;;;;;;;;;8.24;75.40;97691.38;4933536;29;20288;-54
2023/02/23 08:11:17;;;;;;;;;;;;;;;8.08;75.68;97696.28;4934342;29;19922;-54
2023/02/23 08:13:45;;;;;;;;;;;;;;;7.98;76.08;97692.97;4933827;29;19939;-54
2023/02/23 08:16:18;;;;;;;;;;;;;;;7.94;76.39;97691.97;4927788;28;19934;-54
2023/02/23 08:18:47;;;;;;;;;;;;;;;8.11;75.63;97689.47;4932401;29;19935;-55
2023/02/23 08:21:42;;;;;;;;;;;;;;;7.90;76.48;97693.69;4933416;29;19927;-53
2023/02/23 08:24:11;;;;;;;;;;;;;;;7.92;76.56;97689.56;4935096;29;19926;-54
2023/02/23 08:26:39;;;;;;;;;;;;;;;8.13;75.79;97693.47;4934434;29;19923;-54
2023/02/23 08:29:07;;;;;;;;;;;;;;;8.15;75.85;97693.19;4936083;28;19923;-54
2023/02/23 08:31:35;;;;;;;;;;;;;;;8.02;76.62;97697.47;4928685;28;19934;-54
2023/02/23 08:34:03;;;;;;;;;;;;;;;8.13;76.08;97695.38;4937760;29;19953;-59
2023/02/23 08:36:31;;;;;;;;;;;;;;;8.15;76.75;97693.19;4933834;29;20026;-54
2023/02/23 08:39:06;;;;;;;;;;;;;;;8.08;76.98;97690.06;4932772;29;20381;-53
2023/02/23 08:41:36;;;;;;;;;;;;;;;8.11;76.95;97686.78;4932121;29;19923;-53
2023/02/23 08:44:04;;;;;;;;;;;;;;;8.47;75.85;97699.59;4933799;29;19923;-53
2023/02/23 08:46:32;;;;;;;;;;;;;;;8.58;75.49;97701.81;4924030;29;19930;-53
2023/02/23 08:49:00;;;;;;;;;;;;;;;8.73;75.14;97686.31;4933661;29;19950;-53
2023/02/23 08:51:28;;;;;;;;;;;;;;;8.93;74.07;97697.50;4935515;29;20384;-53
2023/02/23 08:53:57;;;;;;;;;;;;;;;8.95;74.27;97690.97;4932186;29;19931;-53
2023/02/23 08:56:25;;;;;;;;;;;;;;;9.08;73.62;97692.88;4931216;29;19930;-53
2023/02/23 08:58:55;;;;;;;;;;;;;;;9.14;73.96;97695.13;4927514;28;19945;-54
2023/02/23 09:01:23;;;;;;;;;;;;;;;9.24;73.08;97701.44;4926621;29;19929;-54
2023/02/23 09:03:51;;;;;;;;;;;;;;;9.22;73.27;97696.34;4929953;29;19931;-53
2023/02/23 09:06:20;;;;;;;;;;;;;;;9.05;73.82;97694.25;4934841;29;19926;-53
2023/02/23 09:08:50;;;;;;;;;;;;;;;9.09;73.93;97699.88;4931737;29;19957;-54
2023/02/23 09:11:18;;;;;;;;;;;;;;;9.21;73.40;97702.03;4928729;29;20018;-53
2023/02/23 09:13:47;;;;;;;;;;;;;;;9.36;72.99;97704.38;4933773;29;19929;-53
2023/02/23 09:16:17;;;;;;;;;;;;;;;8.94;75.09;97703.72;4927513;29;19930;-53
2023/02/23 09:18:45;;;;;;;;;;;;;;;9.30;73.67;97698.28;4934343;29;19993;-53
2023/02/23 09:21:17;;;;;;;;;;;;;;;9.38;73.20;97708.41;4925339;29;20426;-53
2023/02/23 09:23:47;;;;;;;;;;;;;;;9.42;72.93;97698.53;4935515;28;20257;-53
2023/02/23 09:26:16;;;;;;;;;;;;;;;9.41;73.03;97701.56;4935829;29;19923;-53
2023/02/23 09:28:45;;;;;;;;;;;;;;;9.52;72.97;97700.19;4935615;29;19923;-53
2023/02/23 09:31:14;;;;;;;;;;;;;;;9.49;73.28;97702.75;4927436;29;19958;-53
2023/02/23 09:33:44;;;;;;;;;;;;;;;9.55;72.97;97706.94;4930168;29;19969;-53
2023/02/23 09:36:15;;;;;;;;;;;;;;;9.61;72.83;97700.25;4936237;29;19923;-53
2023/02/23 09:38:43;;;;;;;;;;;;;;;9.50;73.25;97707.84;4935625;29;19923;-53
2023/02/23 09:41:23;;;;;;;;;;;;;;;9.59;73.07;97707.91;4936304;28;19930;-53
2023/02/23 09:43:55;;;;;;;;;;;;;;;9.47;74.28;97704.94;4934971;29;19930;-53
2023/02/23 09:46:30;;;;;;;;;;;;;;;9.35;75.22;97709.00;4928780;29;19923;-53
2023/02/23 09:49:00;;;;;;;;;;;;;;;9.47;74.74;97707.66;4934046;29;19926;-53
2023/02/23 09:51:29;;;;;;;;;;;;;;;9.47;74.69;97707.66;4935685;29;19931;-53
2023/02/23 09:53:58;;;;;;;;;;;;;;;9.53;74.56;97704.50;4935677;29;19930;-53
2023/02/23 09:56:29;;;;;;;;;;;;;;;9.48;74.99;97703.81;4935746;29;19923;-53
2023/02/23 09:58:58;;;;;;;;;;;;;;;9.45;75.86;97706.06;4935231;29;20299;-53
2023/02/23 10:01:45;;;;;;;;;;;;;;;9.59;75.23;97703.28;4928060;29;20395;-53
2023/02/23 10:04:21;;;;;;;;;;;;;;;9.73;75.00;97714.03;4934531;28;20360;-53
2023/02/23 10:06:50;;;;;;;;;;;;;;;9.87;74.33;97705.84;4935228;29;19976;-54
2023/02/23 10:09:21;;;;;;;;;;;;;;;9.95;73.72;97710.50;4934524;29;19934;-53
2023/02/23 10:11:51;;;;;;;;;;;;;;;10.18;73.65;97703.09;4935298;29;20174;-54
2023/02/23 10:14:24;;;;;;;;;;;;;;;10.29;72.74;97706.38;4934991;29;19922;-53
2023/02/23 10:16:57;;;;;;;;;;;;;;;10.33;72.60;97705.41;4927643;28;19935;-53
2023/02/23 10:19:29;;;;;;;;;;;;;;;10.45;72.03;97702.91;4934302;29;20001;-54
2023/02/23 10:21:58;;;;;;;;;;;;;;;10.30;72.88;97710.69;4933417;29;19927;-54
2023/02/23 10:24:27;;;;;;;;;;;;;;;10.57;71.65;97712.38;4929210;29;19926;-53
2023/02/23 10:27:00;;;;;;;;;;;;;;;10.56;71.56;97706.13;4935439;29;19929;-53
2023/02/23 10:29:29;;;;;;;;;;;;;;;10.53;71.85;97708.66;4938645;29;19923;-59
2023/02/23 10:31:58;;;;;;;;;;;;;;;10.52;71.55;97707.88;4928490;29;20035;-54
2023/02/23 10:34:29;;;;;;;;;;;;;;;10.48;72.19;97702.25;4937917;28;19922;-58
2023/02/23 10:37:22;;;;;;;;;;;;;;;10.55;71.97;97717.31;4932993;29;20412;-53
2023/02/23 10:39:50;;;;;;;;;;;;;;;10.53;71.89;97716.81;4933966;29;20716;-53
2023/02/23 10:42:20;;;;;;;;;;;;;;;10.57;71.90;97715.06;4922412;29;19922;-53
2023/02/23 10:44:49;;;;;;;;;;;;;;;10.50;72.20;97718.25;4934313;29;19923;-53
2023/02/23 10:47:19;;;;;;;;;;;;;;;10.25;73.41;97721.69;4927080;29;19923;-53
2023/02/23 10:49:49;;;;;;;;;;;;;;;10.41;72.99;97720.94;4934236;29;19922;-53
2023/02/23 10:52:18;;;;;;;;;;;;;;;10.55;72.74;97717.31;4930179;29;19923;-53
2023/02/23 10:54:47;;;;;;;;;;;;;;;10.56;72.47;97713.47;4929638;29;19929;-54
2023/02/23 10:57:19;;;;;;;;;;;;;;;10.62;72.44;97713.00;4932941;29;19923;-54
2023/02/23 11:02:57;;;;;;;;;;;;;;;10.60;73.13;97712.53;4931043;29;19922;-53
2023/02/23 11:05:31;;;;;;;;;;;;;;;10.66;72.78;97710.47;4934760;29;19947;-53
2023/02/23 11:08:09;;;;;;;;;;;;;;;10.72;72.66;97717.34;4932882;29;19927;-53
2023/02/23 11:10:37;;;;;;;;;;;;;;;10.84;72.17;97714.81;4932450;29;19922;-53
2023/02/23 11:13:05;;;;;;;;;;;;;;;10.93;71.72;97710.19;4934667;28;20272;-53
2023/02/23 11:15:58;;;;;;;;;;;;;;;10.97;71.63;97713.88;4926468;28;19973;-53
2023/02/23 11:18:54;;;;;;;;;;;;;;;10.84;72.00;97714.81;4933376;29;20059;-53
2023/02/23 11:21:24;;;;;;;;;;;;;;;10.72;71.90;97717.34;4931260;29;19923;-53
2023/02/23 11:23:53;;;;;;;;;;;;;;;10.70;72.37;97703.25;4933811;28;20418;-53
2023/02/23 11:26:27;;;;;;;;;;;;;;;10.58;72.64;97701.16;4932080;29;19922;-53
2023/02/23 11:28:56;;;;;;;;;;;;;;;10.53;73.20;97701.31;4929691;29;19931;-54
2023/02/23 11:31:28;;;;;;;;;;;;;;;10.49;73.98;97701.16;4922662;29;19983;-53
2023/02/23 11:33:57;;;;;;;;;;;;;;;10.49;74.46;97703.88;4934240;29;19926;-54
2023/02/23 11:36:28;;;;;;;;;;;;;;;10.49;74.50;97701.16;4931702;29;20229;-54
2023/02/23 11:39:06;;;;;;;;;;;;;;;10.50;74.73;97691.09;4933341;29;19946;-53
2023/02/23 11:41:36;;;;;;;;;;;;;;;10.33;76.42;97689.13;4932341;29;20341;-53
2023/02/23 11:44:17;;;;;;;;;;;;;;;10.49;76.16;97693.03;4926879;29;19997;-54
2023/02/23 11:46:45;;;;;;;;;;;;;;;10.47;76.03;97684.38;4924336;29;19923;-53
2023/02/23 11:49:14;;;;;;;;;;;;;;;10.50;75.93;97682.94;4933425;29;20309;-53
2023/02/23 11:51:46;;;;;;;;;;;;;;;10.50;76.27;97682.94;4926307;29;19933;-54
2023/02/23 11:54:17;;;;;;;;;;;;;;;10.63;76.26;97686.66;4929312;29;19923;-54
2023/02/23 11:56:49;;;;;;;;;;;;;;;10.71;75.63;97675.81;4935696;29;20291;-55
2023/02/23 11:59:19;;;;;;;;;;;;;;;10.74;75.28;97677.06;4934888;29;19922;-57
2023/02/23 12:01:48;;;;;;;;;;;;;;;10.79;75.41;97678.84;4928623;29;19957;-54
2023/02/23 12:04:30;;;;;;;;;;;;;;;10.83;74.83;97668.94;4931983;29;19941;-54
2023/02/23 12:07:13;;;;;;;;;;;;;;;10.84;75.18;97671.31;4932458;29;19990;-53
2023/02/23 12:09:42;;;;;;;;;;;;;;;10.90;74.57;97669.25;4931317;29;19933;-54
2023/02/23 12:12:11;;;;;;;;;;;;;;;10.84;74.50;97676.75;4933745;29;20295;-53
2023/02/23 12:14:40;;;;;;;;;;;;;;;10.77;74.68;97671.00;4931301;29;19953;-54
2023/02/23 12:17:40;;;;;;;;;;;;;;;10.73;74.99;97675.47;4932465;29;19965;-54
2023/02/23 12:20:11;;;;;;;;;;;;;;;10.71;75.09;97673.09;4932571;29;19957;-53
2023/02/23 12:22:40;;;;;;;;;;;;;;;10.68;75.27;97681.06;4932351;29;20017;-53
2023/02/23 12:25:11;;;;;;;;;;;;;;;10.74;74.50;97677.06;4933641;29;20349;-53
2023/02/23 12:27:41;;;;;;;;;;;;;;;10.74;74.23;97669.72;4926246;29;19973;-54
2023/02/23 12:30:12;;;;;;;;;;;;;;;10.75;74.32;97667.78;4926823;29;19937;-53
2023/02/23 12:32:43;;;;;;;;;;;;;;;10.75;74.41;97671.31;4927423;28;19923;-53
2023/02/23 12:35:13;;;;;;;;;;;;;;;10.75;73.76;97665.06;4930631;29;19986;-53
2023/02/23 12:37:42;;;;;;;;;;;;;;;10.71;74.45;97667.66;4930951;29;19930;-54
2023/02/23 12:40:14;;;;;;;;;;;;;;;10.90;73.78;97667.34;4933213;29;19953;-54
2023/02/23 12:42:47;;;;;;;;;;;;;;;10.98;73.23;97666.56;4933375;29;19942;-54
2023/02/23 12:45:17;;;;;;;;;;;;;;;10.98;73.18;97655.69;4926355;29;19933;-55
2023/02/23 12:47:47;;;;;;;;;;;;;;;11.00;72.91;97656.16;4934833;29;19961;-54
2023/02/23 12:50:17;;;;;;;;;;;;;;;11.04;72.54;97653.59;4934360;29;20032;-54
2023/02/23 12:52:48;;;;;;;;;;;;;;;11.10;72.01;97652.31;4929697;29;19933;-54
2023/02/23 12:55:20;;;;;;;;;;;;;;;11.22;71.96;97651.66;4932429;28;19934;-54
2023/02/23 12:57:53;;;;;;;;;;;;;;;11.20;71.52;97648.47;4932732;29;19933;-54
2023/02/23 13:00:39;;;;;;;;;;;;;;;11.30;71.23;97650.84;4923611;29;19953;-54
2023/02/23 13:03:13;;;;;;;;;;;;;;;11.23;72.14;97645.88;4928755;29;19956;-54
2023/02/23 13:05:42;;;;;;;;;;;;;;;11.19;71.74;97649.59;4930070;29;19931;-53
2023/02/23 13:08:11;;;;;;;;;;;;;;;11.12;72.30;97641.09;4931203;29;19927;-53
2023/02/23 13:10:46;;;;;;;;;;;;;;;10.95;73.14;97640.00;4941270;29;20382;-52
2023/02/23 13:13:17;;;;;;;;;;;;;;;10.96;73.72;97636.16;4933945;29;19930;-53
2023/02/23 13:15:48;;;;;;;;;;;;;;;11.02;73.39;97634.91;4925276;29;20017;-53
2023/02/23 13:18:19;;;;;;;;;;;;;;;11.06;72.67;97634.25;4925762;29;19929;-53
2023/02/23 13:21:12;;;;;;;;;;;;;;;11.15;72.02;97622.25;4926259;29;19993;-54
2023/02/23 13:23:41;;;;;;;;;;;;;;;11.17;73.16;97630.88;4928649;29;19949;-53
2023/02/23 13:26:14;;;;;;;;;;;;;;;11.30;72.16;97631.81;4934937;29;19944;-53
2023/02/23 13:28:47;;;;;;;;;;;;;;;11.44;70.91;97634.34;4932249;29;19968;-53
2023/02/23 13:31:19;;;;;;;;;;;;;;;11.29;70.85;97635.63;4925984;29;19965;-53
2023/02/23 13:33:48;;;;;;;;;;;;;;;11.26;71.56;97625.44;4934386;28;19992;-54
2023/02/23 13:36:19;;;;;;;;;;;;;;;11.42;70.84;97625.72;4949372;28;20309;-53
2023/02/23 13:38:52;;;;;;;;;;;;;;;11.38;70.04;97625.56;4933490;29;19970;-54
2023/02/23 13:41:24;;;;;;;;;;;;;;;11.32;70.54;97621.41;4936352;28;19923;-53
2023/02/23 13:43:53;;;;;;;;;;;;;;;11.37;70.25;97625.88;4933186;28;20455;-54
2023/02/23 13:46:24;;;;;;;;;;;;;;;11.49;70.17;97624.09;4930006;29;19923;-57
2023/02/23 13:48:56;;;;;;;;;;;;;;;11.44;70.09;97623.47;4930258;29;19934;-54
2023/02/23 13:51:32;;;;;;;;;;;;;;;11.58;69.69;97612.41;4936594;28;19983;-53
2023/02/23 13:54:02;;;;;;;;;;;;;;;11.65;69.41;97618.13;4946961;28;20429;-53
2023/02/23 13:56:32;;;;;;;;;;;;;;;11.67;69.61;97621.34;4930358;29;20254;-53
2023/02/23 13:59:04;;;;;;;;;;;;;;;11.69;68.86;97619.06;4935040;29;19934;-53
2023/02/23 14:01:37;;;;;;;;;;;;;;;11.62;69.08;97616.88;4927537;28;19927;-54
2023/02/23 14:04:06;;;;;;;;;;;;;;;11.57;69.43;97621.69;4931850;29;19923;-52
2023/02/23 14:06:34;;;;;;;;;;;;;;;11.72;68.98;97624.69;4929229;29;20410;-53
2023/02/23 14:09:06;;;;;;;;;;;;;;;11.69;69.02;97625.31;4933807;29;20321;-52
2023/02/23 14:11:59;;;;;;;;;;;;;;;11.66;69.46;97619.72;4935238;28;19930;-53
2023/02/23 14:17:43;;;;;;;;;;;;;;;11.72;68.93;97618.44;4933743;29;20283;-53
2023/02/23 14:20:18;;;;;;;;;;;;;;;11.59;69.86;97619.44;4932109;29;19934;-53
2023/02/23 14:26:15;;;;;;;;;;;;;;;11.44;71.07;97615.28;4932354;29;20395;-53
2023/02/23 14:28:45;;;;;;;;;;;;;;;11.43;70.85;97609.06;4933194;29;19931;-53
2023/02/23 14:31:21;;;;;;;;;;;;;;;11.54;69.99;97606.78;4947836;28;19993;-53
2023/02/23 14:34:02;;;;;;;;;;;;;;;11.47;70.30;97610.03;4932250;29;19954;-53
2023/02/23 14:36:37;;;;;;;;;;;;;;;11.35;70.84;97604.47;4932913;29;19949;-53
2023/02/23 14:39:07;;;;;;;;;;;;;;;11.33;70.14;97606.69;4934839;29;19923;-53
2023/02/23 14:41:38;;;;;;;;;;;;;;;11.26;71.16;97603.66;4933207;29;19929;-53
2023/02/23 14:44:08;;;;;;;;;;;;;;;11.28;70.68;97595.97;4934588;29;19926;-53
2023/02/23 14:46:54;;;;;;;;;;;;;;;11.24;71.38;97597.78;4925643;29;19929;-53
2023/02/23 14:49:24;;;;;;;;;;;;;;;11.19;71.13;97600.66;4934013;29;19937;-57